Time;durP1;ratioP1;P1;durP2;ratioP2;P2;SDS_P1;SDS_P2;PMS_P1;PMS_P2;Temp;Humidity;BMP_temperature;BMP_pressure;BME280_temperature;BME280_humidity;BME280_pressure;Samples;Min_cycle;Max_cycle;Signal;HPM_P1;HPM_P2
2024/01/07 00:00:10;;;;;;;25.20;12.13;;;0.70;99.90;;;;;;5087873;28;20114;-57
2024/01/07 00:02:36;;;;;;;26.35;13.98;;;0.50;99.90;;;;;;5114945;28;20036;-57
2024/01/07 00:05:02;;;;;;;26.08;12.25;;;0.50;99.90;;;;;;5114806;28;20028;-57
2024/01/07 00:07:27;;;;;;;28.25;14.50;;;0.70;99.90;;;;;;5114741;28;20031;-58
2024/01/07 00:09:53;;;;;;;26.17;13.20;;;0.50;99.90;;;;;;5114706;28;20084;-58
2024/01/07 00:12:19;;;;;;;23.27;12.75;;;0.50;99.90;;;;;;5114551;28;20047;-56
2024/01/07 00:14:45;;;;;;;29.48;14.00;;;0.50;99.90;;;;;;5114446;28;20032;-55
2024/01/07 00:17:10;;;;;;;29.60;14.90;;;0.60;99.90;;;;;;5114882;28;20079;-57
2024/01/07 00:19:37;;;;;;;28.40;14.27;;;0.50;99.90;;;;;;5113999;28;20043;-57
2024/01/07 00:22:03;;;;;;;30.02;14.52;;;0.60;99.90;;;;;;5114472;28;20039;-56
2024/01/07 00:24:29;;;;;;;26.42;13.02;;;1.30;99.90;;;;;;5110673;28;20043;-57
2024/01/07 00:26:55;;;;;;;27.63;14.55;;;1.10;99.90;;;;;;5045130;28;20049;-57
2024/01/07 00:29:21;;;;;;;24.77;12.90;;;1.10;99.90;;;;;;5030223;28;20038;-58
2024/01/07 00:31:47;;;;;;;26.92;13.55;;;0.60;99.90;;;;;;5029149;28;20120;-57
2024/01/07 00:34:12;;;;;;;26.92;12.70;;;0.50;99.90;;;;;;5030646;28;20037;-57
2024/01/07 00:36:38;;;;;;;24.42;13.00;;;0.60;99.90;;;;;;5030370;28;20508;-57
2024/01/07 00:39:04;;;;;;;26.90;13.27;;;1.50;99.90;;;;;;5030360;28;20071;-57
2024/01/07 00:41:32;;;;;;;22.60;12.50;;;0.60;99.90;;;;;;5030073;28;20088;-55
2024/01/07 00:43:58;;;;;;;25.85;12.60;;;0.60;99.90;;;;;;5030299;28;20052;-57
2024/01/07 00:46:24;;;;;;;23.25;11.98;;;0.70;99.90;;;;;;5030325;28;20049;-58
2024/01/07 00:48:49;;;;;;;24.40;13.07;;;0.60;99.90;;;;;;5029897;28;20495;-57
2024/01/07 00:51:15;;;;;;;25.38;13.35;;;1.30;99.90;;;;;;5078676;28;20036;-57
2024/01/07 00:53:41;;;;;;;24.92;12.48;;;1.20;99.90;;;;;;5113662;28;20032;-57
2024/01/07 00:56:07;;;;;;;29.70;14.63;;;1.40;99.90;;;;;;5113477;28;20031;-56
2024/01/07 00:58:33;;;;;;;27.20;12.93;;;0.90;99.90;;;;;;5113538;28;20047;-57
2024/01/07 01:00:59;;;;;;;26.30;13.52;;;1.00;99.90;;;;;;5113633;28;20040;-57
2024/01/07 01:03:26;;;;;;;27.80;13.32;;;0.50;99.90;;;;;;5113743;28;20046;-56
2024/01/07 01:05:53;;;;;;;26.85;13.40;;;1.50;99.90;;;;;;5113294;28;20044;-56
2024/01/07 01:08:18;;;;;;;29.38;14.32;;;0.70;99.90;;;;;;5113449;28;20046;-56
2024/01/07 01:10:44;;;;;;;23.65;12.57;;;0.60;99.90;;;;;;5113268;28;20027;-57
2024/01/07 01:13:10;;;;;;;28.35;13.93;;;0.70;99.90;;;;;;5107495;28;20088;-57
2024/01/07 01:15:35;;;;;;;24.40;12.55;;;0.80;99.90;;;;;;5113232;28;20491;-57
2024/01/07 01:18:01;;;;;;;24.00;12.70;;;0.90;99.90;;;;;;5029612;27;20077;-57
2024/01/07 01:20:28;;;;;;;26.92;13.32;;;1.40;99.90;;;;;;5029352;28;20403;-56
2024/01/07 01:22:53;;;;;;;22.42;11.85;;;0.60;99.90;;;;;;5029621;28;20033;-56
2024/01/07 01:25:19;;;;;;;25.73;12.15;;;0.70;99.90;;;;;;5029479;28;20113;-59
2024/01/07 01:27:45;;;;;;;25.52;11.77;;;0.60;99.90;;;;;;5029852;28;20037;-58
2024/01/07 01:30:11;;;;;;;23.67;11.80;;;0.60;99.90;;;;;;5028356;28;20038;-58
2024/01/07 01:32:38;;;;;;;25.77;12.30;;;0.60;99.90;;;;;;5029677;28;20037;-56
2024/01/07 01:35:05;;;;;;;23.73;11.75;;;1.10;99.90;;;;;;5096876;28;20039;-57
2024/01/07 01:37:32;;;;;;;24.25;12.23;;;0.70;99.90;;;;;;5112744;28;20539;-56
2024/01/07 01:39:58;;;;;;;24.58;11.75;;;0.60;99.90;;;;;;5112686;28;20036;-56
2024/01/07 01:42:25;;;;;;;21.80;11.57;;;1.20;99.90;;;;;;5112420;28;20074;-55
2024/01/07 01:44:51;;;;;;;20.52;10.30;;;0.60;99.90;;;;;;5112874;28;20144;-54
2024/01/07 01:47:17;;;;;;;21.05;10.30;;;0.90;99.90;;;;;;5028848;28;20041;-54
2024/01/07 01:49:45;;;;;;;20.85;10.63;;;0.70;99.90;;;;;;5078377;28;20035;-55
2024/01/07 01:52:12;;;;;;;22.30;10.75;;;0.60;99.90;;;;;;5112298;28;20096;-56
2024/01/07 01:54:38;;;;;;;19.08;9.52;;;1.30;99.90;;;;;;5112436;28;20671;-57
2024/01/07 01:57:05;;;;;;;19.60;9.85;;;1.10;99.90;;;;;;5112655;28;20035;-57
2024/01/07 01:59:33;;;;;;;21.70;9.85;;;1.40;99.90;;;;;;5112738;28;20032;-57
2024/01/07 02:01:59;;;;;;;21.65;9.38;;;0.70;99.90;;;;;;5102121;28;20045;-57
2024/01/07 02:04:25;;;;;;;22.98;10.45;;;0.80;99.90;;;;;;5107294;28;20039;-58
2024/01/07 02:06:51;;;;;;;19.40;10.05;;;1.20;99.90;;;;;;5107635;28;20042;-56
2024/01/07 02:09:16;;;;;;;24.60;11.90;;;0.70;99.90;;;;;;5103757;28;20062;-57
2024/01/07 02:11:42;;;;;;;21.73;11.23;;;1.30;99.90;;;;;;5111977;28;20038;-56
2024/01/07 02:14:08;;;;;;;22.85;10.98;;;0.60;99.90;;;;;;5112137;28;20039;-58
2024/01/07 02:16:33;;;;;;;20.65;11.05;;;1.40;99.90;;;;;;5112181;28;20049;-56
2024/01/07 02:18:59;;;;;;;20.48;10.48;;;1.00;99.90;;;;;;5031596;28;20523;-56
2024/01/07 02:21:25;;;;;;;25.70;12.02;;;1.40;99.90;;;;;;5028703;28;20069;-57
2024/01/07 02:23:50;;;;;;;21.10;11.38;;;0.60;99.90;;;;;;5028811;28;20145;-57
2024/01/07 02:26:16;;;;;;;26.45;13.32;;;0.80;99.90;;;;;;5028959;28;20037;-55
2024/01/07 02:28:42;;;;;;;23.40;11.32;;;0.60;99.90;;;;;;5028841;28;20045;-58
2024/01/07 02:31:07;;;;;;;24.92;12.38;;;1.30;99.90;;;;;;5090108;28;20490;-57
2024/01/07 02:33:33;;;;;;;25.48;11.73;;;1.40;99.90;;;;;;5111527;28;20035;-57
2024/01/07 02:35:58;;;;;;;23.90;12.48;;;1.20;99.90;;;;;;5031665;28;20540;-55
2024/01/07 02:38:24;;;;;;;22.52;12.20;;;0.60;99.90;;;;;;5027643;28;20129;-56
2024/01/07 02:40:50;;;;;;;25.70;12.50;;;0.60;99.90;;;;;;5097375;28;20036;-56
2024/01/07 02:43:15;;;;;;;23.60;12.68;;;0.70;99.90;;;;;;5102952;28;20073;-58
2024/01/07 02:45:41;;;;;;;22.15;11.73;;;1.40;99.90;;;;;;5111664;28;20044;-57
2024/01/07 02:48:07;;;;;;;22.98;11.80;;;1.00;99.90;;;;;;5104953;28;20539;-54
2024/01/07 02:50:33;;;;;;;23.42;11.60;;;0.60;99.90;;;;;;5111059;28;20042;-56
2024/01/07 02:52:59;;;;;;;22.77;11.50;;;0.70;99.90;;;;;;5108961;28;20488;-58
2024/01/07 02:55:24;;;;;;;19.65;10.85;;;0.60;99.90;;;;;;5109576;28;20127;-58
2024/01/07 02:57:50;;;;;;;24.77;13.05;;;1.10;99.90;;;;;;5111466;28;20474;-57
2024/01/07 03:00:16;;;;;;;22.35;11.13;;;1.30;99.90;;;;;;5111807;28;20054;-56
2024/01/07 03:02:41;;;;;;;21.52;10.57;;;1.10;99.90;;;;;;5111716;28;20035;-56
2024/01/07 03:05:07;;;;;;;19.92;11.02;;;0.60;99.90;;;;;;5029815;28;20121;-56
2024/01/07 03:07:33;;;;;;;19.80;10.70;;;1.30;99.90;;;;;;5027753;28;20045;-57
2024/01/07 03:09:59;;;;;;;20.98;11.23;;;1.30;99.90;;;;;;5028379;28;20033;-57
2024/01/07 03:12:24;;;;;;;22.05;10.85;;;1.20;99.90;;;;;;5069818;28;20359;-56
2024/01/07 03:14:50;;;;;;;22.77;11.25;;;1.30;99.90;;;;;;5111649;28;20036;-57
2024/01/07 03:17:17;;;;;;;22.55;11.25;;;0.60;99.90;;;;;;5111124;28;20040;-56
2024/01/07 03:19:43;;;;;;;21.65;11.63;;;1.00;99.90;;;;;;5105763;28;20046;-55
2024/01/07 03:22:08;;;;;;;20.05;10.10;;;1.10;99.90;;;;;;5111123;28;20375;-56
2024/01/07 03:24:34;;;;;;;22.55;12.30;;;1.10;99.90;;;;;;5112087;28;20032;-56
2024/01/07 03:27:00;;;;;;;19.45;10.05;;;0.80;99.90;;;;;;5115249;28;20040;-56
2024/01/07 03:29:25;;;;;;;21.80;10.45;;;1.20;99.90;;;;;;5115524;28;20111;-55
2024/01/07 03:31:52;;;;;;;22.08;10.70;;;0.60;99.90;;;;;;5115308;28;20032;-56
2024/01/07 03:34:18;;;;;;;20.15;10.88;;;1.10;99.90;;;;;;5115275;28;20040;-56
2024/01/07 03:36:44;;;;;;;18.73;11.15;;;0.60;99.90;;;;;;5115201;28;20050;-57
2024/01/07 03:39:10;;;;;;;19.83;10.13;;;0.50;99.90;;;;;;5114820;28;20390;-58
2024/01/07 03:41:35;;;;;;;18.30;10.57;;;0.80;99.90;;;;;;5112991;28;20387;-57
2024/01/07 03:44:01;;;;;;;22.05;10.75;;;0.70;99.90;;;;;;5041581;28;20049;-57
2024/01/07 03:46:27;;;;;;;20.20;9.65;;;1.20;99.90;;;;;;5114763;28;20096;-58
2024/01/07 03:48:53;;;;;;;20.13;11.40;;;1.20;99.90;;;;;;5114911;28;20043;-57
2024/01/07 03:51:19;;;;;;;19.67;9.90;;;0.60;99.90;;;;;;5113560;28;20034;-56
2024/01/07 03:53:44;;;;;;;18.50;9.75;;;0.60;99.90;;;;;;5031239;28;20076;-56
2024/01/07 03:56:10;;;;;;;20.83;9.85;;;0.70;99.90;;;;;;5031061;28;20033;-56
2024/01/07 03:58:36;;;;;;;20.42;10.48;;;1.20;99.90;;;;;;5097250;28;20031;-57
2024/01/07 04:01:01;;;;;;;21.58;10.57;;;0.60;99.90;;;;;;5032054;28;20061;-56
2024/01/07 04:03:27;;;;;;;21.90;9.52;;;0.80;99.90;;;;;;5031069;28;20819;-57
2024/01/07 04:05:53;;;;;;;18.63;9.40;;;1.10;99.90;;;;;;5031249;28;20116;-56
2024/01/07 04:08:18;;;;;;;19.08;9.10;;;1.00;99.90;;;;;;5030533;28;20038;-58
2024/01/07 04:10:44;;;;;;;21.40;9.88;;;0.80;99.90;;;;;;5031342;28;20065;-57
2024/01/07 04:13:10;;;;;;;17.85;9.63;;;1.20;99.90;;;;;;5030641;28;20041;-56
2024/01/07 04:15:35;;;;;;;18.90;10.15;;;1.20;99.90;;;;;;5031188;28;20140;-56
2024/01/07 04:18:03;;;;;;;20.48;9.60;;;1.10;99.90;;;;;;5030568;28;20033;-56
2024/01/07 04:20:29;;;;;;;17.50;9.15;;;0.70;99.90;;;;;;5037669;28;20079;-56
2024/01/07 04:22:55;;;;;;;18.75;9.32;;;0.60;99.90;;;;;;5114717;27;20038;-56
2024/01/07 04:25:21;;;;;;;18.77;9.48;;;0.50;99.90;;;;;;5114103;28;20116;-57
2024/01/07 04:27:46;;;;;;;18.67;9.50;;;1.00;99.90;;;;;;5114504;28;20032;-57
2024/01/07 04:30:12;;;;;;;17.42;10.10;;;0.60;99.90;;;;;;5114453;28;20110;-57
2024/01/07 04:32:38;;;;;;;17.25;8.43;;;1.10;99.90;;;;;;5114678;28;20043;-57
2024/01/07 04:35:04;;;;;;;20.58;9.93;;;1.10;99.90;;;;;;5113570;28;20090;-56
2024/01/07 04:37:30;;;;;;;17.27;8.38;;;0.50;99.90;;;;;;5114446;28;20187;-56
2024/01/07 04:39:55;;;;;;;19.67;9.52;;;1.00;99.90;;;;;;5113822;28;20075;-55
2024/01/07 04:42:21;;;;;;;18.75;9.20;;;0.40;99.90;;;;;;5113552;28;20059;-57
2024/01/07 04:44:47;;;;;;;19.60;9.48;;;1.00;99.90;;;;;;5030730;28;20057;-55
2024/01/07 04:47:30;;;;;;;19.45;9.43;;;0.40;99.90;;;;;;5076781;28;20065;-56
2024/01/07 04:49:56;;;;;;;18.02;8.95;;;1.00;99.90;;;;;;5112367;28;20039;-56
2024/01/07 04:52:23;;;;;;;17.48;8.70;;;0.40;99.90;;;;;;5112472;28;20051;-57
2024/01/07 04:54:55;;;;;;;19.67;9.48;;;1.00;99.90;;;;;;5032842;28;20049;-57
2024/01/07 04:57:21;;;;;;;17.60;8.00;;;0.60;99.90;;;;;;5029094;28;20037;-58
2024/01/07 04:59:48;;;;;;;18.40;9.07;;;0.50;99.90;;;;;;5028905;28;20037;-56
2024/01/07 05:02:14;;;;;;;18.73;7.90;;;1.00;99.90;;;;;;5028943;28;20037;-57
2024/01/07 05:04:41;;;;;;;16.27;9.05;;;0.50;99.90;;;;;;5027638;28;20041;-57
2024/01/07 05:07:07;;;;;;;14.98;7.63;;;0.90;99.90;;;;;;5066883;28;20394;-56
2024/01/07 05:09:33;;;;;;;18.13;8.40;;;1.00;99.90;;;;;;5112241;28;20036;-56
2024/01/07 05:11:59;;;;;;;17.05;8.65;;;0.90;99.90;;;;;;5112409;28;20036;-57
2024/01/07 05:14:25;;;;;;;15.30;8.77;;;0.90;99.90;;;;;;5112490;28;20107;-57
2024/01/07 05:16:51;;;;;;;14.75;7.75;;;0.50;99.90;;;;;;5112441;28;20139;-56
2024/01/07 05:19:16;;;;;;;14.43;7.82;;;0.50;99.90;;;;;;5112213;28;20043;-56
2024/01/07 05:21:42;;;;;;;14.77;6.97;;;0.30;99.90;;;;;;5112395;28;20096;-57
2024/01/07 05:24:07;;;;;;;13.60;7.72;;;0.50;99.90;;;;;;5014242;28;20484;-56
2024/01/07 05:26:41;;;;;;;15.35;7.50;;;0.80;99.90;;;;;;5028600;28;20507;-56
2024/01/07 05:29:07;;;;;;;14.57;7.10;;;0.80;99.90;;;;;;5029108;28;20029;-56
2024/01/07 05:31:32;;;;;;;16.15;7.57;;;0.50;99.90;;;;;;5027907;28;20029;-57
2024/01/07 05:33:58;;;;;;;15.02;7.75;;;0.40;99.90;;;;;;5110831;28;20043;-55
2024/01/07 05:36:24;;;;;;;12.98;7.20;;;0.80;99.90;;;;;;5111847;28;20040;-55
2024/01/07 05:38:49;;;;;;;12.93;6.70;;;0.80;99.90;;;;;;5112131;28;20083;-57
2024/01/07 05:41:15;;;;;;;16.17;7.38;;;0.60;99.90;;;;;;5112296;28;20082;-56
2024/01/07 05:43:41;;;;;;;12.77;6.35;;;0.40;99.90;;;;;;5010458;28;1091457;-57
2024/01/07 05:46:06;;;;;;;14.15;7.72;;;0.20;99.90;;;;;;5033875;28;20033;-57
2024/01/07 05:48:47;;;;;;;12.10;5.80;;;0.20;99.90;;;;;;5028475;28;20038;-56
2024/01/07 05:51:14;;;;;;;14.15;6.63;;;0.60;99.90;;;;;;5029154;28;20086;-56
2024/01/07 05:53:40;;;;;;;11.65;6.07;;;0.20;99.90;;;;;;5053402;28;20032;-57
2024/01/07 05:56:06;;;;;;;10.98;6.15;;;0.70;99.90;;;;;;5031734;28;20166;-57
2024/01/07 05:58:32;;;;;;;13.52;6.10;;;0.70;99.90;;;;;;5029089;28;20049;-56
2024/01/07 06:00:58;;;;;;;16.10;6.10;;;0.70;99.90;;;;;;5029430;28;20044;-57
2024/01/07 06:03:24;;;;;;;12.05;6.10;;;0.30;99.90;;;;;;5029135;28;20065;-54
2024/01/07 06:05:49;;;;;;;12.30;5.95;;;0.50;99.90;;;;;;5033720;28;20094;-56
2024/01/07 06:08:15;;;;;;;11.85;4.95;;;0.30;99.90;;;;;;5029079;28;20077;-55
2024/01/07 06:10:41;;;;;;;11.80;5.00;;;0.20;99.90;;;;;;5029044;28;20040;-56
2024/01/07 06:13:07;;;;;;;12.52;5.43;;;0.60;99.90;;;;;;5027823;28;20045;-57
2024/01/07 06:15:32;;;;;;;9.43;5.40;;;0.50;99.90;;;;;;5035398;28;20122;-54
2024/01/07 06:17:58;;;;;;;10.50;5.35;;;0.60;99.90;;;;;;5108300;28;20052;-57
2024/01/07 06:20:24;;;;;;;10.57;5.50;;;0.40;99.90;;;;;;5102914;27;20214;-55
2024/01/07 06:22:50;;;;;;;9.02;4.78;;;0.20;99.90;;;;;;5107599;28;20044;-54
2024/01/07 06:25:16;;;;;;;8.93;4.88;;;0.40;99.90;;;;;;5102548;27;20039;-57
2024/01/07 06:27:41;;;;;;;9.10;4.50;;;0.40;99.90;;;;;;5111923;28;20040;-55
2024/01/07 06:30:08;;;;;;;7.65;4.10;;;0.50;99.90;;;;;;5112056;28;20046;-56
2024/01/07 06:32:34;;;;;;;7.53;3.67;;;0.30;99.90;;;;;;5112121;28;20054;-57
2024/01/07 06:35:00;;;;;;;9.73;4.55;;;0.50;99.90;;;;;;5110340;28;20092;-57
2024/01/07 06:37:28;;;;;;;10.40;4.30;;;0.50;99.90;;;;;;5111785;28;20119;-57
2024/01/07 06:39:54;;;;;;;8.82;3.95;;;0.20;99.90;;;;;;5102431;28;20039;-56
2024/01/07 06:42:20;;;;;;;8.85;3.55;;;0.40;99.90;;;;;;5110181;28;20542;-55
2024/01/07 06:44:46;;;;;;;8.45;3.60;;;0.30;99.90;;;;;;5111393;28;20055;-55
2024/01/07 06:47:12;;;;;;;7.63;3.78;;;0.20;99.90;;;;;;5105071;28;20066;-56
2024/01/07 06:49:38;;;;;;;6.78;3.72;;;0.20;99.90;;;;;;5053909;28;20080;-56
2024/01/07 06:52:05;;;;;;;6.13;3.00;;;0.10;99.90;;;;;;5028830;28;20161;-55
2024/01/07 06:54:30;;;;;;;7.25;3.70;;;0.30;99.90;;;;;;5027150;28;20500;-56
2024/01/07 06:56:56;;;;;;;5.82;3.10;;;0.10;99.90;;;;;;5028587;28;20042;-56
2024/01/07 06:59:22;;;;;;;11.00;3.50;;;0.20;99.90;;;;;;5061191;28;20043;-56
2024/01/07 07:01:47;;;;;;;8.88;3.15;;;0.00;99.90;;;;;;5111615;28;20073;-57
2024/01/07 07:04:13;;;;;;;6.55;3.47;;;0.30;99.90;;;;;;5111250;28;20044;-57
2024/01/07 07:06:39;;;;;;;8.73;3.75;;;0.20;99.90;;;;;;5111315;28;20044;-55
2024/01/07 07:09:04;;;;;;;8.90;3.38;;;0.00;99.90;;;;;;5111445;28;20067;-57
2024/01/07 07:11:30;;;;;;;5.63;2.95;;;0.10;99.90;;;;;;5110195;28;20034;-56
2024/01/07 07:13:56;;;;;;;6.82;3.05;;;0.20;99.90;;;;;;5111641;28;20044;-56
2024/01/07 07:16:22;;;;;;;7.22;2.90;;;0.00;99.90;;;;;;5111604;28;20031;-56
2024/01/07 07:18:48;;;;;;;6.10;3.10;;;0.00;99.90;;;;;;5111486;28;20079;-55
2024/01/07 07:21:14;;;;;;;6.47;3.25;;;0.00;99.90;;;;;;5111169;28;20063;-56
2024/01/07 07:23:39;;;;;;;4.85;2.70;;;0.00;99.90;;;;;;5087445;28;20037;-56
2024/01/07 07:26:06;;;;;;;6.60;3.17;;;0.00;99.90;;;;;;5028084;28;20500;-57
2024/01/07 07:28:32;;;;;;;7.03;2.70;;;0.00;99.90;;;;;;5027770;28;20056;-56
2024/01/07 07:30:58;;;;;;;5.68;2.60;;;0.00;99.90;;;;;;5028232;28;20041;-54
2024/01/07 07:33:24;;;;;;;5.78;2.55;;;0.30;99.90;;;;;;5028091;28;20037;-56
2024/01/07 07:35:49;;;;;;;8.98;2.67;;;-0.20;99.90;;;;;;5027929;28;20114;-56
2024/01/07 07:38:15;;;;;;;5.38;2.58;;;0.30;99.90;;;;;;5027922;28;20126;-56
2024/01/07 07:40:41;;;;;;;6.97;2.60;;;0.10;99.90;;;;;;5027911;28;20045;-56
2024/01/07 07:43:08;;;;;;;7.30;2.95;;;0.20;99.90;;;;;;5027808;28;20053;-56
2024/01/07 07:45:34;;;;;;;6.13;2.58;;;0.20;99.90;;;;;;5027799;28;20089;-57
2024/01/07 07:48:00;;;;;;;8.13;3.42;;;0.30;99.90;;;;;;5032830;28;20050;-56
2024/01/07 07:50:25;;;;;;;6.05;2.63;;;0.20;99.90;;;;;;5110384;28;20032;-57
2024/01/07 07:52:51;;;;;;;4.30;2.40;;;0.10;99.90;;;;;;5106712;28;20039;-57
2024/01/07 07:55:17;;;;;;;6.13;2.67;;;0.20;99.90;;;;;;5111201;28;20070;-57
2024/01/07 07:57:42;;;;;;;5.80;2.85;;;0.30;99.90;;;;;;5110831;28;20047;-58
2024/01/07 08:00:12;;;;;;;6.70;2.88;;;0.30;99.90;;;;;;5110930;28;20050;-55
2024/01/07 08:02:38;;;;;;;7.20;2.85;;;0.20;99.90;;;;;;5110441;28;20047;-57
2024/01/07 08:05:05;;;;;;;5.80;2.38;;;0.40;99.90;;;;;;5110895;28;20474;-56
2024/01/07 08:07:30;;;;;;;4.57;2.20;;;0.30;99.90;;;;;;5110835;28;20032;-57
2024/01/07 08:09:57;;;;;;;8.43;3.17;;;0.30;99.90;;;;;;5105934;28;20031;-54
2024/01/07 08:12:23;;;;;;;5.07;2.67;;;0.20;99.90;;;;;;5114463;28;20509;-56
2024/01/07 08:14:49;;;;;;;5.00;2.08;;;0.40;99.90;;;;;;5040113;28;20471;-56
2024/01/07 08:17:15;;;;;;;5.13;2.10;;;0.40;99.90;;;;;;5095826;28;20119;-57
2024/01/07 08:19:40;;;;;;;5.45;2.47;;;0.30;99.90;;;;;;5114171;28;20038;-57
2024/01/07 08:22:06;;;;;;;5.80;2.35;;;0.30;99.90;;;;;;5114229;28;20093;-57
2024/01/07 08:24:32;;;;;;;5.05;2.00;;;0.30;99.90;;;;;;5114031;28;20351;-57
2024/01/07 08:26:57;;;;;;;4.10;2.38;;;0.40;99.90;;;;;;5010098;28;20030;-57
2024/01/07 08:29:23;;;;;;;6.05;2.22;;;0.40;99.90;;;;;;5022916;28;20064;-56
2024/01/07 08:31:49;;;;;;;5.53;2.03;;;0.40;99.90;;;;;;5028298;28;20072;-54
2024/01/07 08:34:15;;;;;;;6.35;2.38;;;0.40;99.90;;;;;;5020382;28;20111;-56
2024/01/07 08:36:41;;;;;;;5.28;2.08;;;0.30;99.90;;;;;;4986652;28;20026;-56
2024/01/07 08:39:08;;;;;;;6.22;2.15;;;0.40;99.90;;;;;;5025780;28;20137;-56
2024/01/07 08:41:33;;;;;;;5.32;2.13;;;0.50;99.90;;;;;;5015857;28;20044;-57
2024/01/07 08:43:59;;;;;;;5.97;2.35;;;0.30;99.90;;;;;;5023953;28;20062;-56
2024/01/07 08:46:25;;;;;;;5.60;2.30;;;0.40;99.90;;;;;;5031278;28;20108;-55
2024/01/07 08:48:51;;;;;;;6.13;2.67;;;0.80;99.90;;;;;;5024935;28;20044;-57
2024/01/07 08:51:16;;;;;;;5.72;2.28;;;0.30;99.90;;;;;;5006763;28;20489;-56
2024/01/07 08:53:42;;;;;;;6.30;2.20;;;0.30;99.90;;;;;;5030186;28;20034;-56
2024/01/07 08:56:08;;;;;;;6.30;2.00;;;0.20;99.90;;;;;;5028954;28;20069;-58
2024/01/07 08:58:34;;;;;;;6.00;2.10;;;0.30;99.90;;;;;;5030572;28;20386;-56
2024/01/07 09:01:00;;;;;;;5.75;1.85;;;0.10;99.90;;;;;;5022600;28;20056;-57
2024/01/07 09:03:26;;;;;;;5.13;1.92;;;0.20;99.90;;;;;;5019872;28;20046;-53
2024/01/07 09:05:51;;;;;;;6.53;2.47;;;0.10;99.90;;;;;;5022247;28;20066;-57
2024/01/07 09:08:17;;;;;;;6.63;3.00;;;0.20;99.90;;;;;;5020142;28;20038;-57
2024/01/07 09:10:43;;;;;;;7.28;2.08;;;0.20;99.90;;;;;;5018083;28;20022;-56
2024/01/07 09:13:08;;;;;;;5.15;1.92;;;0.10;99.90;;;;;;5013886;28;20041;-56
2024/01/07 09:15:34;;;;;;;4.18;1.70;;;0.10;99.90;;;;;;5013757;28;20460;-58
2024/01/07 09:18:00;;;;;;;3.95;1.50;;;0.10;99.90;;;;;;5008465;28;20041;-57
2024/01/07 09:20:25;;;;;;;5.50;2.10;;;0.10;99.90;;;;;;5025913;28;20050;-57
2024/01/07 09:22:51;;;;;;;3.83;1.77;;;0.10;99.90;;;;;;5030862;28;20112;-57
2024/01/07 09:25:17;;;;;;;4.05;1.70;;;0.10;99.90;;;;;;4985297;28;20068;-56
2024/01/07 09:27:43;;;;;;;3.30;1.65;;;0.30;99.90;;;;;;5020234;28;20465;-57
2024/01/07 09:30:14;;;;;;;4.18;1.85;;;0.20;99.90;;;;;;5030046;28;20042;-56
2024/01/07 09:32:41;;;;;;;4.50;1.92;;;0.30;99.90;;;;;;5035102;28;20125;-57
2024/01/07 09:35:07;;;;;;;7.63;2.60;;;0.20;99.90;;;;;;5023160;28;20034;-58
2024/01/07 09:37:33;;;;;;;5.15;1.80;;;0.20;99.90;;;;;;5027523;28;20436;-57
2024/01/07 09:39:58;;;;;;;4.72;1.60;;;0.20;99.90;;;;;;5024997;28;20070;-57
2024/01/07 09:42:24;;;;;;;4.70;1.77;;;0.20;99.90;;;;;;5008571;28;20042;-57
2024/01/07 09:44:51;;;;;;;4.28;1.40;;;0.20;99.90;;;;;;5037382;28;20053;-57
2024/01/07 09:47:17;;;;;;;4.38;2.25;;;0.30;99.90;;;;;;5023309;28;20099;-57
2024/01/07 09:49:43;;;;;;;4.88;2.30;;;0.30;99.90;;;;;;5013607;28;20039;-57
2024/01/07 09:52:10;;;;;;;6.47;1.95;;;0.30;99.90;;;;;;5033993;28;20274;-54
2024/01/07 09:54:40;;;;;;;4.82;1.90;;;0.30;99.90;;;;;;5031354;28;20026;-57
2024/01/07 09:57:07;;;;;;;4.20;1.70;;;0.30;99.90;;;;;;5020831;28;21193;-57
2024/01/07 09:59:37;;;;;;;5.80;1.98;;;0.40;99.90;;;;;;5027305;28;20647;-56
2024/01/07 10:02:03;;;;;;;4.63;1.67;;;0.50;99.90;;;;;;5028268;28;20044;-55
2024/01/07 10:04:30;;;;;;;4.50;1.80;;;0.50;99.90;;;;;;5019403;28;20110;-55
2024/01/07 10:06:56;;;;;;;4.20;1.90;;;0.50;99.90;;;;;;5039708;28;20414;-58
2024/01/07 10:09:29;;;;;;;4.05;1.98;;;0.50;99.90;;;;;;5033932;27;20077;-56
2024/01/07 10:11:55;;;;;;;3.90;1.70;;;0.60;99.90;;;;;;5012738;28;20056;-57
2024/01/07 10:14:25;;;;;;;5.82;1.65;;;0.60;99.90;;;;;;5020732;28;20065;-56
2024/01/07 10:16:54;;;;;;;5.55;1.95;;;0.70;99.90;;;;;;5023326;28;20067;-55
2024/01/07 10:19:21;;;;;;;7.88;1.92;;;0.70;99.90;;;;;;5003853;28;20461;-56
2024/01/07 10:21:58;;;;;;;4.13;1.70;;;0.90;99.90;;;;;;5031190;28;20038;-57
2024/01/07 10:24:23;;;;;;;3.42;1.48;;;1.10;99.90;;;;;;5003456;28;20417;-57
2024/01/07 10:26:49;;;;;;;3.38;1.50;;;1.30;99.90;;;;;;5045364;28;20040;-57
2024/01/07 10:29:15;;;;;;;4.97;1.45;;;1.50;99.90;;;;;;5015946;28;20073;-55
2024/01/07 10:31:42;;;;;;;3.35;1.55;;;2.00;99.90;;;;;;5073775;28;20043;-56
2024/01/07 10:34:09;;;;;;;2.95;1.42;;;2.30;99.90;;;;;;5076861;28;20401;-57
2024/01/07 10:36:35;;;;;;;3.40;1.40;;;2.60;99.90;;;;;;5042003;28;20471;-58
2024/01/07 10:39:02;;;;;;;4.75;1.60;;;2.90;99.90;;;;;;5060156;28;20119;-55
2024/01/07 10:41:29;;;;;;;3.05;1.40;;;3.30;99.90;;;;;;5051341;28;20038;-54
2024/01/07 10:43:55;;;;;;;3.63;1.40;;;3.50;99.90;;;;;;5073727;28;20064;-56
2024/01/07 10:46:21;;;;;;;4.88;1.60;;;3.50;99.90;;;;;;5096509;28;20044;-55
2024/01/07 10:48:59;;;;;;;4.22;1.40;;;3.50;99.90;;;;;;5094772;28;20044;-56
2024/01/07 10:51:28;;;;;;;4.82;1.73;;;3.50;99.90;;;;;;5074515;28;20037;-57
2024/01/07 10:53:55;;;;;;;5.10;1.50;;;3.70;99.90;;;;;;5034414;28;20043;-61
2024/01/07 10:56:29;;;;;;;3.17;1.50;;;3.80;99.90;;;;;;5052770;28;20045;-59
2024/01/07 10:58:56;;;;;;;3.47;1.60;;;3.70;99.90;;;;;;5094877;28;20064;-58
2024/01/07 11:01:21;;;;;;;4.25;1.42;;;3.80;99.90;;;;;;5094170;27;20045;-60
2024/01/07 11:04:10;;;;;;;4.13;1.70;;;3.80;99.90;;;;;;5103192;28;20103;-60
2024/01/07 11:06:45;;;;;;;3.70;1.30;;;3.50;99.90;;;;;;5082200;28;20035;-58
2024/01/07 11:09:37;;;;;;;4.63;1.42;;;3.10;99.90;;;;;;5082397;28;20503;-59
2024/01/07 11:12:04;;;;;;;4.07;1.40;;;2.70;99.90;;;;;;5079058;28;20036;-61
2024/01/07 11:14:47;;;;;;;4.55;1.60;;;2.50;99.90;;;;;;5069762;28;20045;-60
2024/01/07 11:17:16;;;;;;;3.17;1.25;;;2.30;99.90;;;;;;5008384;28;20051;-57
2024/01/07 11:19:53;;;;;;;2.85;1.30;;;2.10;99.90;;;;;;5061462;28;20040;-58
2024/01/07 11:22:29;;;;;;;2.70;1.10;;;2.00;99.90;;;;;;5095439;28;20096;-60
2024/01/07 11:25:00;;;;;;;4.95;1.20;;;1.90;99.90;;;;;;5086910;28;20047;-59
2024/01/07 11:27:32;;;;;;;2.50;1.20;;;1.90;99.90;;;;;;5086722;28;20426;-59
2024/01/07 11:30:21;;;;;;;6.05;1.55;;;1.90;99.90;;;;;;5071196;28;20042;-59
2024/01/07 11:32:47;;;;;;;2.42;1.13;;;1.90;99.90;;;;;;5062247;28;20130;-61
2024/01/07 11:35:13;;;;;;;2.58;1.08;;;1.80;99.90;;;;;;5066341;28;20655;-59
2024/01/07 11:37:39;;;;;;;4.82;1.25;;;2.00;99.90;;;;;;5051718;28;20039;-59
2024/01/07 11:40:06;;;;;;;2.97;1.35;;;1.70;99.90;;;;;;5086136;28;20036;-59
2024/01/07 11:42:32;;;;;;;3.05;1.30;;;1.60;99.90;;;;;;5091046;28;20036;-59
2024/01/07 11:44:58;;;;;;;3.58;1.75;;;1.60;99.90;;;;;;5087140;28;20056;-59
2024/01/07 11:47:27;;;;;;;6.28;1.95;;;1.50;99.90;;;;;;5075096;28;20056;-58
2024/01/07 11:49:54;;;;;;;4.93;1.50;;;1.50;99.90;;;;;;5062782;28;20052;-60
2024/01/07 11:52:20;;;;;;;4.22;1.60;;;1.40;99.90;;;;;;5050822;28;20031;-61
2024/01/07 11:54:47;;;;;;;4.97;1.88;;;1.40;99.90;;;;;;5105868;28;20035;-59
2024/01/07 11:57:13;;;;;;;4.43;1.70;;;1.40;99.90;;;;;;5098054;28;20040;-59
2024/01/07 11:59:39;;;;;;;4.47;1.50;;;1.60;99.90;;;;;;5087522;28;20040;-58
2024/01/07 12:02:05;;;;;;;5.07;1.67;;;1.40;99.90;;;;;;5019186;28;20039;-59
2024/01/07 12:04:32;;;;;;;4.47;1.70;;;1.80;99.90;;;;;;5005325;28;20045;-58
2024/01/07 12:06:58;;;;;;;3.63;1.52;;;1.40;99.90;;;;;;5041078;28;20038;-61
2024/01/07 12:09:24;;;;;;;3.65;1.60;;;1.40;99.90;;;;;;5044753;28;20047;-58
2024/01/07 12:11:50;;;;;;;3.88;1.90;;;1.40;99.90;;;;;;5062114;28;20071;-61
2024/01/07 12:14:16;;;;;;;3.38;1.63;;;1.40;99.90;;;;;;5083624;28;20028;-60
2024/01/07 12:16:42;;;;;;;5.18;2.20;;;1.40;99.90;;;;;;5074473;28;20145;-59
2024/01/07 12:19:09;;;;;;;3.95;1.45;;;1.40;99.90;;;;;;5065277;28;20129;-61
2024/01/07 12:21:35;;;;;;;3.30;1.52;;;1.40;99.90;;;;;;5047159;28;20505;-59
2024/01/07 12:24:01;;;;;;;3.45;1.50;;;1.40;99.90;;;;;;5059544;28;20165;-60
2024/01/07 12:26:28;;;;;;;5.57;1.90;;;1.70;99.90;;;;;;5046472;28;20130;-60
2024/01/07 12:28:55;;;;;;;4.55;1.70;;;1.60;99.90;;;;;;5043847;28;20034;-60
2024/01/07 12:31:21;;;;;;;3.47;1.60;;;1.80;99.90;;;;;;5087027;28;20050;-59
2024/01/07 12:33:47;;;;;;;4.55;1.85;;;2.00;99.90;;;;;;5067049;28;20037;-60
2024/01/07 12:36:13;;;;;;;3.72;1.30;;;2.30;99.90;;;;;;5094006;28;20454;-59
2024/01/07 12:38:39;;;;;;;4.28;1.48;;;2.50;99.90;;;;;;5057972;28;20046;-61
2024/01/07 12:41:05;;;;;;;5.32;2.20;;;2.80;99.90;;;;;;5083873;28;20035;-59
2024/01/07 12:43:31;;;;;;;5.32;2.22;;;3.00;99.90;;;;;;5079813;28;20066;-58